Time;durP1;ratioP1;P1;durP2;ratioP2;P2;SDS_P1;SDS_P2;PMS_P1;PMS_P2;Temp;Humidity;BMP_temperature;BMP_pressure;BME280_temperature;BME280_humidity;BME280_pressure;Samples;Min_cycle;Max_cycle;Signal;HPM_P1;HPM_P2
2022/11/16 00:01:19;;;;;;;16.85;11.68;;;;;;;10.46;100.00;99844.16;5034718;28;20026;-80
2022/11/16 00:03:45;;;;;;;16.92;11.75;;;;;;;10.46;100.00;99841.56;5035095;28;20389;-80
2022/11/16 00:06:12;;;;;;;16.95;10.88;;;;;;;10.24;100.00;99811.47;5034849;28;20044;-81
2022/11/16 00:09:20;;;;;;;15.38;11.52;;;;;;;10.40;100.00;99826.56;5034770;28;20029;-78
2022/11/16 00:11:34;;;;;;;14.90;11.27;;;;;;;10.46;100.00;99838.19;5034556;28;20037;-81
2022/11/16 00:13:59;;;;;;;15.02;11.90;;;;;;;9.65;100.00;99711.13;5022746;23;20049;-80
2022/11/16 00:16:25;;;;;;;17.63;12.05;;;;;;;10.46;100.00;99844.16;5014945;28;20038;-79
2022/11/16 00:18:59;;;;;;;16.83;11.90;;;;;;;10.48;100.00;99841.44;5014876;28;20022;-80
2022/11/16 00:21:25;;;;;;;16.30;11.70;;;;;;;10.39;100.00;99832.66;5014753;28;20026;-80
2022/11/16 00:23:51;;;;;;;16.20;12.05;;;;;;;10.49;100.00;99849.06;5014495;28;20525;-80
2022/11/16 00:26:16;;;;;;;17.23;12.50;;;;;;;10.41;100.00;99841.09;5014686;28;20113;-76
2022/11/16 00:28:42;;;;;;;19.17;13.23;;;;;;;10.28;100.00;99814.63;5014197;28;20218;-75
2022/11/16 00:31:08;;;;;;;16.58;12.95;;;;;;;10.47;100.00;99843.22;5014457;28;20399;-76
2022/11/16 00:33:34;;;;;;;18.55;13.48;;;;;;;10.33;100.00;99818.50;5014551;28;20026;-80
2022/11/16 00:36:04;;;;;;;17.90;13.07;;;;;;;10.48;100.00;99837.09;5014593;28;20084;-80
2022/11/16 00:38:30;;;;;;;16.98;13.52;;;;;;;10.17;100.00;99792.19;5014448;28;20029;-79
2022/11/16 00:40:55;;;;;;;16.83;13.30;;;;;;;10.48;100.00;99844.84;5014331;28;20021;-79
2022/11/16 00:43:21;;;;;;;17.17;13.93;;;;;;;10.46;100.00;99831.25;5013714;28;20072;-80
2022/11/16 00:45:46;;;;;;;16.65;13.30;;;;;;;10.39;100.00;99809.44;5014413;28;20055;-81
2022/11/16 00:48:12;;;;;;;20.88;14.20;;;;;;;10.37;100.00;99811.31;5014191;28;20397;-80
2022/11/16 00:50:37;;;;;;;19.58;14.10;;;;;;;10.36;100.00;99814.03;5013623;28;20380;-80
2022/11/16 00:53:04;;;;;;;20.75;15.18;;;;;;;10.42;100.00;99829.88;5014361;28;20049;-80
2022/11/16 00:55:29;;;;;;;19.10;13.60;;;;;;;10.41;100.00;99832.53;5014285;28;20487;-80
2022/11/16 00:57:55;;;;;;;19.65;14.50;;;;;;;10.36;100.00;99830.34;5014036;28;20038;-81
2022/11/16 01:00:20;;;;;;;20.08;14.52;;;;;;;10.40;100.00;99823.97;5013675;28;20057;-81
2022/11/16 01:02:45;;;;;;;18.70;14.02;;;;;;;10.41;100.00;99828.19;5014030;28;20141;-81
2022/11/16 01:05:11;;;;;;;19.65;14.85;;;;;;;10.38;100.00;99827.63;4996219;28;20038;-81
2022/11/16 01:07:38;;;;;;;18.98;14.65;;;;;;;10.41;100.00;99817.88;5013784;28;20064;-81
2022/11/16 01:10:06;;;;;;;21.42;13.98;;;;;;;10.39;100.00;99812.00;5013788;28;20025;-81
2022/11/16 01:12:31;;;;;;;17.60;13.50;;;;;;;10.40;100.00;99811.06;5013482;28;20030;-81
2022/11/16 01:14:57;;;;;;;19.15;14.18;;;;;;;10.40;100.00;99812.84;5013311;28;20046;-82
2022/11/16 01:17:22;;;;;;;18.08;14.20;;;;;;;10.22;100.00;99794.44;5013964;28;20049;-82
2022/11/16 01:19:47;;;;;;;22.90;14.80;;;;;;;10.40;100.00;99820.56;4996344;28;20026;-81
2022/11/16 01:22:13;;;;;;;18.15;14.20;;;;;;;10.44;100.00;99822.81;5013730;28;20034;-82
2022/11/16 01:24:38;;;;;;;17.30;13.73;;;;;;;10.44;100.00;99809.91;5013716;28;20026;-81
2022/11/16 01:27:03;;;;;;;19.02;14.27;;;;;;;10.23;100.00;99749.66;5013570;28;20026;-81
2022/11/16 01:29:29;;;;;;;17.27;13.15;;;;;;;10.41;100.00;99784.31;5013328;28;20025;-80
2022/11/16 01:31:56;;;;;;;18.88;13.65;;;;;;;10.45;100.00;99805.56;5013567;28;20026;-80
2022/11/16 01:34:22;;;;;;;17.42;13.02;;;;;;;10.42;100.00;99804.06;5013538;28;20121;-81
2022/11/16 01:36:48;;;;;;;17.88;13.40;;;;;;;10.43;100.00;99797.13;5013482;28;20113;-81
2022/11/16 01:39:14;;;;;;;21.25;14.10;;;;;;;10.33;100.00;99782.38;5013370;28;20022;-82
2022/11/16 01:41:42;;;;;;;17.65;13.40;;;;;;;10.46;100.00;99791.72;5013520;28;20022;-82
2022/11/16 01:44:13;;;;;;;18.88;13.38;;;;;;;10.46;100.00;99791.72;5013401;28;20469;-82
2022/11/16 01:46:40;;;;;;;19.15;12.77;;;;;;;10.35;100.00;99774.50;5013472;28;20022;-82
2022/11/16 01:49:15;;;;;;;19.50;14.13;;;;;;;10.30;100.00;99763.72;5013526;28;20106;-82
2022/11/16 01:52:00;;;;;;;17.77;13.50;;;;;;;10.17;100.00;99737.22;5013402;28;20056;-81
2022/11/16 01:54:27;;;;;;;19.27;13.50;;;;;;;10.48;100.00;99777.75;5013218;28;20601;-82
2022/11/16 01:56:54;;;;;;;19.83;14.48;;;;;;;10.45;100.00;99778.00;5013163;28;20026;-81
2022/11/16 01:59:20;;;;;;;19.98;14.43;;;;;;;10.43;100.00;99766.16;5013303;28;20026;-81
2022/11/16 02:01:45;;;;;;;24.40;14.90;;;;;;;10.52;100.00;99789.47;5016163;28;20037;-82
2022/11/16 02:04:12;;;;;;;18.95;14.27;;;;;;;10.39;100.00;99768.16;5017408;28;20080;-81
2022/11/16 02:09:52;;;;;;;20.77;14.55;;;;;;;10.54;100.00;99787.59;5017277;28;20022;-81
2022/11/16 02:10:44;;;;;;;20.65;13.52;;;;;;;10.55;100.00;99781.47;4899595;29;20120;-81
2022/11/16 02:13:37;;;;;;;18.38;13.65;;;;;;;10.57;100.00;99779.59;4899250;29;20033;-81
2022/11/16 02:16:21;;;;;;;21.48;14.57;;;;;;;10.59;100.00;99784.63;4899232;29;20119;-81
2022/11/16 02:19:06;;;;;;;21.08;14.27;;;;;;;10.59;100.00;99775.13;4899478;29;20043;-81
2022/11/16 02:21:31;;;;;;;21.38;14.95;;;;;;;10.60;100.00;99775.94;4899414;29;20036;-81
2022/11/16 02:24:18;;;;;;;19.25;14.65;;;;;;;10.60;100.00;99774.19;4899553;29;20028;-82
2022/11/16 02:27:12;;;;;;;23.85;14.25;;;;;;;10.57;100.00;99760.72;4899204;29;20048;-81
2022/11/16 02:29:44;;;;;;;20.17;14.80;;;;;;;10.52;100.00;99761.09;4899353;29;20028;-81
2022/11/16 02:32:21;;;;;;;20.40;14.73;;;;;;;10.62;100.00;99774.09;4899318;29;20037;-81
2022/11/16 02:34:57;;;;;;;19.30;13.93;;;;;;;10.63;100.00;99776.53;5096597;23;20463;-81
2022/11/16 02:37:25;;;;;;;18.30;13.30;;;;;;;10.62;100.00;99771.50;5036280;28;20064;-81
2022/11/16 02:39:55;;;;;;;20.15;13.63;;;;;;;10.58;100.00;99763.16;5036544;28;20071;-79
2022/11/16 02:42:42;;;;;;;19.33;13.40;;;;;;;10.63;100.00;99775.72;5036171;28;20116;-80
2022/11/16 02:45:11;;;;;;;21.70;13.93;;;;;;;10.48;100.00;99751.13;5018300;28;20036;-80
2022/11/16 02:47:39;;;;;;;17.13;13.32;;;;;;;10.65;100.00;99780.75;5036194;28;20483;-80
2022/11/16 02:50:10;;;;;;;19.65;13.38;;;;;;;10.45;100.00;99747.03;5035724;28;20091;-77
2022/11/16 02:52:37;;;;;;;17.93;13.13;;;;;;;10.66;100.00;99782.38;5018315;28;20556;-80
2022/11/16 02:55:06;;;;;;;18.83;13.90;;;;;;;10.56;100.00;99770.22;5036256;28;20308;-80
2022/11/16 02:57:47;;;;;;;18.42;12.52;;;;;;;10.52;100.00;99760.25;5035953;28;20079;-80
2022/11/16 03:00:28;;;;;;;18.80;12.95;;;;;;;10.43;100.00;99748.09;5036153;28;20033;-81
2022/11/16 03:03:00;;;;;;;17.40;13.02;;;;;;;10.61;100.00;99783.56;5036013;28;20025;-80
2022/11/16 03:05:43;;;;;;;16.30;11.73;;;;;;;10.48;100.00;99759.69;5035951;28;20388;-80
2022/11/16 03:08:25;;;;;;;14.48;10.30;;;;;;;10.55;100.00;99778.91;5036039;28;20030;-81
2022/11/16 03:13:43;;;;;;;16.98;11.05;;;;;;;10.14;100.00;99732.31;5035502;28;20401;-81
2022/11/16 03:16:14;;;;;;;15.48;10.25;;;;;;;10.42;100.00;99780.81;5035470;28;20026;-80
2022/11/16 03:18:42;;;;;;;13.15;10.65;;;;;;;10.36;100.00;99773.56;5035572;28;20485;-80
2022/11/16 03:21:15;;;;;;;14.48;9.77;;;;;;;10.17;100.00;99747.53;5035544;28;20431;-81
2022/11/16 03:23:41;;;;;;;12.68;9.43;;;;;;;10.29;100.00;99767.22;5017830;28;20038;-81
2022/11/16 03:26:10;;;;;;;12.95;9.45;;;;;;;10.23;100.00;99758.22;5035411;28;20036;-81
2022/11/16 03:28:46;;;;;;;12.90;9.38;;;;;;;10.31;100.00;99780.81;5035536;28;20084;-81
2022/11/16 03:31:17;;;;;;;12.00;9.57;;;;;;;10.31;100.00;99791.97;5035216;28;20029;-80
2022/11/16 03:33:47;;;;;;;12.60;9.23;;;;;;;10.09;100.00;99753.28;5035067;28;20049;-81
2022/11/16 03:36:23;;;;;;;11.85;8.57;;;;;;;10.11;100.00;99753.16;5035503;28;20029;-81
2022/11/16 03:38:51;;;;;;;11.80;8.73;;;;;;;10.18;100.00;99775.78;5035365;28;20385;-80
2022/11/16 03:41:20;;;;;;;13.50;9.45;;;;;;;10.07;100.00;99768.88;5035164;28;20072;-81
2022/11/16 03:43:48;;;;;;;12.20;8.35;;;;;;;10.16;100.00;99777.66;5017538;28;20037;-82
2022/11/16 03:46:15;;;;;;;12.65;8.80;;;;;;;10.17;100.00;99802.53;5034695;28;20140;-82
2022/11/16 03:48:41;;;;;;;12.82;8.85;;;;;;;10.03;100.00;99782.16;5035127;28;20022;-80
2022/11/16 03:51:08;;;;;;;12.85;8.85;;;;;;;10.15;100.00;99804.41;5035254;28;20029;-80
2022/11/16 03:53:34;;;;;;;11.13;9.18;;;;;;;10.13;100.00;99808.88;5034996;28;20034;-80
2022/11/16 03:55:59;;;;;;;10.57;8.02;;;;;;;10.10;100.00;99811.66;5034983;28;20029;-81
2022/11/16 03:58:25;;;;;;;11.65;8.35;;;;;;;9.83;100.00;99770.75;5035071;28;20029;-80
2022/11/16 04:00:50;;;;;;;12.75;8.18;;;;;;;9.97;100.00;99806.63;5034682;28;20026;-82
2022/11/16 04:03:17;;;;;;;11.30;7.88;;;;;;;10.00;100.00;99811.56;5094110;23;20107;-81
2022/11/16 04:25:08;;;;;;;9.80;4.60;;;;;;;9.61;100.00;99833.44;5033789;28;20056;-82
2022/11/16 04:30:18;;;;;;;6.95;3.40;;;;;;;9.44;100.00;99816.69;5034420;28;20037;-82
2022/11/16 04:38:11;;;;;;;8.57;3.40;;;;;;;9.44;100.00;99826.97;5034490;28;20032;-82
2022/11/16 04:40:36;;;;;;;7.93;3.42;;;;;;;9.33;100.00;99808.91;5034120;28;20018;-82
2022/11/16 04:43:03;;;;;;;9.02;4.15;;;;;;;9.42;100.00;99822.84;5033699;28;20045;-82
2022/11/16 04:48:14;;;;;;;6.57;3.17;;;;;;;9.46;100.00;99845.72;5034067;28;20148;-81
2022/11/16 04:50:40;;;;;;;5.28;3.15;;;;;;;9.42;100.00;99846.03;5034031;28;20067;-82
2022/11/16 04:53:06;;;;;;;5.43;3.05;;;;;;;9.38;100.00;99850.63;5033816;28;20501;-82
2022/11/16 04:55:32;;;;;;;6.95;3.13;;;;;;;9.28;100.00;99848.81;5033789;28;20021;-82
2022/11/16 04:57:58;;;;;;;8.20;3.35;;;;;;;9.28;100.00;99852.22;5033571;28;20031;-82
2022/11/16 05:00:24;;;;;;;11.05;3.65;;;;;;;9.25;100.00;99867.09;5033607;28;20030;-82
2022/11/16 05:02:49;;;;;;;6.20;3.60;;;;;;;9.15;100.00;99861.78;5033304;28;20137;-82
2022/11/16 05:05:15;;;;;;;8.10;3.30;;;;;;;8.98;100.00;99837.25;5033669;28;20032;-82
2022/11/16 05:07:41;;;;;;;11.15;3.80;;;;;;;8.96;100.00;99839.13;5033617;28;20045;-81
2022/11/16 05:10:06;;;;;;;8.63;3.47;;;;;;;9.13;100.00;99879.91;5015656;28;20464;-82
2022/11/16 05:12:33;;;;;;;5.78;3.15;;;;;;;9.14;100.00;99875.56;5033829;28;20030;-81
2022/11/16 05:14:58;;;;;;;6.53;3.45;;;;;;;9.10;100.00;99876.75;5033584;28;20087;-82
2022/11/16 05:17:25;;;;;;;9.07;3.95;;;;;;;9.00;100.00;99865.44;5033944;28;20021;-81
2022/11/16 05:22:35;;;;;;;8.80;3.67;;;;;;;8.88;100.00;99855.09;5033590;28;20544;-80
2022/11/16 05:25:03;;;;;;;8.05;3.67;;;;;;;8.98;100.00;99887.91;5033440;28;20029;-81
2022/11/16 05:27:29;;;;;;;8.35;3.33;;;;;;;8.94;100.00;99877.00;5033278;28;20028;-81
2022/11/16 05:29:55;;;;;;;8.40;3.53;;;;;;;8.83;100.00;99875.19;5033391;28;20029;-79
2022/11/16 05:32:22;;;;;;;10.50;3.30;;;;;;;8.75;100.00;99869.78;5033392;28;20021;-80
2022/11/16 05:34:47;;;;;;;7.47;3.30;;;;;;;8.71;100.00;99864.94;5032921;28;20087;-80
2022/11/16 05:37:13;;;;;;;9.02;3.60;;;;;;;8.60;100.00;99847.69;5032896;28;20021;-79
2022/11/16 05:39:39;;;;;;;9.77;4.15;;;;;;;8.53;100.00;99844.72;5032922;28;20487;-80
2022/11/16 05:42:05;;;;;;;8.75;4.28;;;;;;;8.56;100.00;99865.09;5033058;28;20065;-81
2022/11/16 05:44:31;;;;;;;8.98;4.25;;;;;;;8.64;100.00;99882.56;5033032;28;20030;-81
2022/11/16 05:46:56;;;;;;;10.23;4.78;;;;;;;8.57;100.00;99877.03;5033246;28;20034;-80
2022/11/16 05:49:22;;;;;;;10.70;4.10;;;;;;;8.48;100.00;99869.97;5033040;28;20048;-79
2022/11/16 05:51:47;;;;;;;9.63;4.05;;;;;;;8.33;100.00;99860.69;5032950;28;20060;-81
2022/11/16 05:54:20;;;;;;;10.70;3.95;;;;;;;8.37;100.00;99879.34;5033106;28;20025;-79
2022/11/16 05:56:47;;;;;;;7.72;4.20;;;;;;;8.07;100.00;99851.38;5031585;28;20022;-82
2022/11/16 05:59:18;;;;;;;8.70;3.72;;;;;;;8.17;100.00;99876.38;5013333;28;20030;-81
2022/11/16 06:01:43;;;;;;;10.77;4.25;;;;;;;8.11;100.00;99881.09;5013378;28;20033;-81
2022/11/16 06:04:09;;;;;;;8.30;3.80;;;;;;;8.01;100.00;99886.03;5012660;28;20034;-81
2022/11/16 06:06:35;;;;;;;8.48;5.03;;;;;;;7.93;100.00;99896.81;5013005;28;20030;-82
2022/11/16 06:09:00;;;;;;;13.32;4.88;;;;;;;7.83;100.00;99892.41;5012991;28;20022;-80
2022/11/16 06:11:26;;;;;;;10.15;4.63;;;;;;;7.67;100.00;99882.28;5013199;28;20045;-81
2022/11/16 06:13:51;;;;;;;9.88;4.25;;;;;;;7.47;100.00;99858.78;5013291;28;20033;-80
2022/11/16 06:16:16;;;;;;;14.90;4.60;;;;;;;7.31;100.00;99847.03;5012869;28;20033;-81
2022/11/16 06:18:45;;;;;;;11.02;5.13;;;;;;;7.51;100.00;99892.78;5078150;23;20054;-81
2022/11/16 06:21:12;;;;;;;8.35;4.80;;;;;;;7.50;100.00;99900.59;5032526;28;20063;-81
2022/11/16 06:23:38;;;;;;;10.90;4.40;;;;;;;7.23;100.00;99867.22;5032517;28;20033;-82
2022/11/16 06:26:03;;;;;;;10.75;5.60;;;;;;;7.25;100.00;99870.50;5032712;28;20479;-81
2022/11/16 06:28:29;;;;;;;14.68;5.82;;;;;;;7.41;100.00;99899.44;5032851;28;20033;-80
2022/11/16 06:30:54;;;;;;;14.07;6.13;;;;;;;7.43;100.00;99911.25;5032730;28;20551;-82
2022/11/16 06:33:20;;;;;;;11.82;5.82;;;;;;;7.26;100.00;99885.81;5032561;28;20053;-79
2022/11/16 06:35:45;;;;;;;15.10;5.82;;;;;;;7.32;100.00;99903.41;5032307;28;20061;-80
2022/11/16 06:38:17;;;;;;;11.32;6.07;;;;;;;7.37;100.00;99931.34;5032644;28;20021;-81
2022/11/16 06:40:42;;;;;;;;;;;;;;;7.34;100.00;99929.00;5033078;28;20022;-78
2022/11/16 06:43:07;;;;;;;14.05;7.18;;;;;;;7.26;100.00;99919.19;5032539;28;19920;-79
2022/11/16 06:45:33;;;;;;;12.18;6.68;;;;;;;7.30;100.00;99925.81;5032666;28;20034;-81
2022/11/16 06:50:31;;;;;;;15.15;7.72;;;;;;;7.14;100.00;99913.09;5015053;28;20116;-81
2022/11/16 06:52:59;;;;;;;13.27;7.43;;;;;;;7.28;100.00;99940.50;5016166;28;20022;-81
2022/11/16 06:55:25;;;;;;;12.35;6.88;;;;;;;7.00;100.00;99899.50;5016362;28;20477;-81
2022/11/16 06:57:51;;;;;;;14.18;7.70;;;;;;;7.22;100.00;99934.91;5016197;28;20037;-81
2022/11/16 07:00:17;;;;;;;15.25;8.48;;;;;;;7.26;100.00;99942.31;5016371;28;20026;-81
2022/11/16 07:02:42;;;;;;;15.65;8.27;;;;;;;7.25;100.00;99947.56;5016176;28;20030;-79
2022/11/16 07:05:07;;;;;;;19.15;8.75;;;;;;;7.25;100.00;99942.41;5015945;28;20033;-80
2022/11/16 07:07:33;;;;;;;15.80;7.93;;;;;;;7.12;100.00;99929.53;5015970;28;20030;-82
2022/11/16 07:09:58;;;;;;;20.40;8.73;;;;;;;6.86;100.00;99877.25;5015763;28;20395;-78
2022/11/16 07:12:23;;;;;;;14.20;7.78;;;;;;;7.04;100.00;99906.91;5016169;28;20088;-78
2022/11/16 07:14:49;;;;;;;15.35;7.55;;;;;;;6.97;100.00;99899.69;5016066;28;20022;-79
2022/11/16 07:17:14;;;;;;;16.38;7.68;;;;;;;7.21;100.00;99944.38;5015328;28;20370;-78
2022/11/16 07:19:39;;;;;;;18.77;7.72;;;;;;;7.24;100.00;99943.34;5016075;28;20034;-79
2022/11/16 07:22:05;;;;;;;15.85;7.63;;;;;;;7.24;100.00;99946.72;5015550;28;20104;-80
2022/11/16 07:24:31;;;;;;;16.92;8.20;;;;;;;7.15;100.00;99937.03;5015645;28;20022;-80
2022/11/16 07:26:56;;;;;;;18.65;7.68;;;;;;;7.21;100.00;99946.94;5013994;28;20068;-78
2022/11/16 07:29:21;;;;;;;15.18;7.30;;;;;;;7.20;100.00;99953.00;5015658;28;20030;-77
2022/11/16 07:31:47;;;;;;;17.35;6.95;;;;;;;7.00;100.00;99915.72;4997522;28;20069;-82
2022/11/16 07:34:12;;;;;;;18.13;7.28;;;;;;;7.26;100.00;99973.13;5015867;28;20056;-80
2022/11/16 07:36:38;;;;;;;17.83;6.70;;;;;;;7.13;100.00;99954.28;5015561;28;20026;-81
2022/11/16 07:39:05;;;;;;;18.25;7.65;;;;;;;7.26;100.00;99980.81;5015593;28;20026;-80
2022/11/16 07:41:31;;;;;;;16.48;7.28;;;;;;;7.18;100.00;99972.81;5014610;28;20053;-81
2022/11/16 07:43:56;;;;;;;19.73;8.25;;;;;;;7.26;100.00;99983.41;5015511;28;20030;-80
2022/11/16 07:46:24;;;;;;;16.88;8.40;;;;;;;7.24;100.00;99979.28;5015379;28;20022;-79
2022/11/16 07:48:50;;;;;;;17.40;7.97;;;;;;;7.30;100.00;99984.88;5013842;28;20072;-79
2022/11/16 07:51:18;;;;;;;20.50;8.88;;;;;;;7.31;100.00;99989.09;5014513;28;20038;-80
2022/11/16 07:53:44;;;;;;;22.42;9.60;;;;;;;7.34;100.00;99988.06;5015130;28;20052;-79
2022/11/16 07:56:10;;;;;;;23.77;9.82;;;;;;;7.21;100.00;99958.94;5015081;28;20026;-82
2022/11/16 07:58:36;;;;;;;26.40;11.43;;;;;;;7.38;100.00;99989.53;5014662;28;20030;-79
2022/11/16 08:01:07;;;;;;;25.25;11.07;;;;;;;7.05;100.00;99941.09;5015209;28;20049;-78
2022/11/16 08:03:34;;;;;;;27.05;10.80;;;;;;;7.25;100.00;99973.22;5014993;28;20033;-81
2022/11/16 08:06:02;;;;;;;25.00;10.90;;;;;;;7.32;100.00;99972.75;5014454;28;20060;-82
2022/11/16 08:08:27;;;;;;;24.98;10.57;;;;;;;7.20;100.00;99955.56;5014763;28;20068;-83
2022/11/16 08:11:00;;;;;;;21.92;10.05;;;;;;;7.44;100.00;99989.13;5014617;28;20029;-80
2022/11/16 08:13:25;;;;;;;25.75;10.38;;;;;;;7.46;100.00;99992.41;5014854;28;20029;-78
2022/11/16 08:15:53;;;;;;;24.33;9.63;;;;;;;7.47;100.00;99994.91;5014615;28;20417;-80
2022/11/16 08:18:19;;;;;;;25.45;9.65;;;;;;;7.56;100.00;100001.19;5015206;28;20056;-80
2022/11/16 08:20:45;;;;;;;24.38;10.02;;;;;;;7.54;100.00;99997.91;5014523;28;20017;-78
2022/11/16 08:23:10;;;;;;;22.85;9.07;;;;;;;7.28;100.00;99950.75;4996280;28;20042;-79
2022/11/16 08:25:36;;;;;;;20.63;8.52;;;;;;;7.63;100.00;100006.78;4996801;28;20072;-80
2022/11/16 08:28:01;;;;;;;22.08;8.73;;;;;;;7.57;100.00;99995.16;5014490;28;20104;-77
2022/11/16 08:30:26;;;;;;;19.77;8.10;;;;;;;7.66;100.00;100004.81;5014336;28;20429;-77
2022/11/16 08:32:52;;;;;;;24.55;7.53;;;;;;;7.52;100.00;99979.19;5014296;28;20054;-76
2022/11/16 08:35:17;;;;;;;16.95;7.60;;;;;;;7.69;100.00;100002.06;5014310;28;20160;-78
2022/11/16 08:37:42;;;;;;;20.00;7.47;;;;;;;7.71;100.00;100005.38;5014134;28;20045;-79
2022/11/16 08:40:08;;;;;;;23.67;8.30;;;;;;;7.72;100.00;100009.56;5014181;28;20355;-77
2022/11/16 08:42:33;;;;;;;24.95;7.78;;;;;;;7.74;100.00;100002.59;5013977;28;20042;-76
2022/11/16 08:44:59;;;;;;;20.58;6.45;;;;;;;7.74;100.00;99999.19;5013554;28;20030;-77
2022/11/16 08:47:24;;;;;;;14.45;5.68;;;;;;;7.81;100.00;100005.59;5014121;28;20420;-76
2022/11/16 08:49:49;;;;;;;16.30;6.15;;;;;;;7.53;100.00;99960.28;5013992;28;20081;-82
2022/11/16 08:52:15;;;;;;;21.25;6.28;;;;;;;7.82;100.00;100007.25;4996225;28;20497;-77
2022/11/16 08:54:40;;;;;;;15.35;5.32;;;;;;;7.89;100.00;100013.63;5012489;28;20026;-73
2022/11/16 08:57:06;;;;;;;20.77;6.25;;;;;;;7.80;100.00;99992.84;5013901;28;20057;-73
2022/11/16 08:59:31;;;;;;;13.88;4.95;;;;;;;7.92;100.00;100020.31;5014421;28;20108;-75
2022/11/16 09:01:56;;;;;;;16.73;5.80;;;;;;;7.99;100.00;100017.25;5013772;28;20029;-75
2022/11/16 09:04:23;;;;;;;21.38;4.95;;;;;;;7.82;100.00;99989.25;5014084;28;20417;-75
2022/11/16 09:06:51;;;;;;;18.52;4.45;;;;;;;7.89;100.00;100002.53;5013644;28;20109;-78
2022/11/16 09:09:17;;;;;;;16.23;4.32;;;;;;;8.05;100.00;100021.16;5013658;28;20058;-77
2022/11/16 09:11:43;;;;;;;19.55;4.70;;;;;;;8.09;100.00;100019.22;5012890;28;20441;-74
2022/11/16 09:14:08;;;;;;;19.67;5.32;;;;;;;7.99;100.00;100012.13;5013562;28;20076;-77
2022/11/16 09:16:33;;;;;;;18.50;5.10;;;;;;;8.13;100.00;100030.94;5013463;28;20036;-77
2022/11/16 09:19:00;;;;;;;15.18;5.00;;;;;;;7.96;100.00;100003.75;5013671;28;20056;-81
2022/11/16 09:21:27;;;;;;;14.43;4.30;;;;;;;8.17;100.00;100022.13;5013668;28;20037;-82
2022/11/16 09:23:54;;;;;;;16.42;4.47;;;;;;;8.20;100.00;100032.22;5013151;28;20025;-82
2022/11/16 09:26:21;;;;;;;16.85;4.40;;;;;;;8.05;100.00;100005.72;5013410;28;20022;-82
2022/11/16 09:28:54;;;;;;;14.23;4.15;;;;;;;8.22;100.00;100030.34;4995749;28;20124;-83
2022/11/16 09:31:19;;;;;;;16.42;4.68;;;;;;;8.27;100.00;100031.72;5013600;28;20411;-83
2022/11/16 09:33:46;;;;;;;14.57;3.58;;;;;;;8.18;100.00;100008.34;5013393;28;20113;-81
2022/11/16 09:36:12;;;;;;;14.25;3.63;;;;;;;8.18;100.00;100003.19;5013174;28;20030;-82
2022/11/16 09:38:44;;;;;;;10.88;3.78;;;;;;;8.24;100.00;100015.63;5012954;28;20029;-83
2022/11/16 09:41:47;;;;;;;11.00;3.75;;;;;;;8.26;100.00;100008.66;5013027;28;20129;-82
2022/11/16 09:44:31;;;;;;;13.85;3.55;;;;;;;8.40;100.00;100026.59;5013219;28;20081;-82
2022/11/16 09:46:58;;;;;;;12.93;3.40;;;;;;;8.46;100.00;100031.34;5013510;28;20113;-82
2022/11/16 09:49:29;;;;;;;11.25;3.10;;;;;;;8.50;100.00;100037.09;5012876;28;20050;-83
2022/11/16 09:51:59;;;;;;;16.20;4.50;;;;;;;8.57;100.00;100034.03;5013370;28;20034;-83
2022/11/16 09:54:35;;;;;;;12.65;3.60;;;;;;;8.52;100.00;100022.38;5012868;28;20018;-83
2022/11/16 09:57:06;;;;;;;12.02;3.28;;;;;;;8.42;100.00;100008.47;5013270;28;20061;-77
2022/11/16 09:59:51;;;;;;;12.20;3.47;;;;;;;8.63;100.00;100040.47;5013514;28;20053;-74
2022/11/16 10:02:27;;;;;;;11.95;3.40;;;;;;;8.64;100.00;100042.13;5012963;28;20018;-73
2022/11/16 10:05:14;;;;;;;13.57;3.85;;;;;;;8.68;100.00;100040.19;4995402;28;20026;-74
2022/11/16 10:07:47;;;;;;;13.25;3.72;;;;;;;8.65;100.00;100030.09;5013122;28;20037;-77
2022/11/16 10:10:28;;;;;;;12.93;3.67;;;;;;;8.83;100.00;100050.25;5011776;28;20498;-78
2022/11/16 10:13:13;;;;;;;14.10;3.45;;;;;;;8.81;100.00;100046.97;5013294;28;20030;-78
2022/11/16 10:15:48;;;;;;;12.43;3.60;;;;;;;8.91;100.00;100044.59;5013263;28;20072;-77
2022/11/16 10:18:47;;;;;;;10.55;3.50;;;;;;;8.93;100.00;100047.06;5013196;28;20034;-78
2022/11/16 10:21:12;;;;;;;12.38;3.30;;;;;;;8.91;100.00;100044.59;5012899;28;20030;-79
2022/11/16 10:23:50;;;;;;;12.88;4.10;;;;;;;8.76;100.00;100014.75;5015489;28;20111;-78
2022/11/16 10:26:15;;;;;;;14.05;3.38;;;;;;;8.95;100.00;100032.31;5016717;28;20083;-78
2022/11/16 10:28:59;;;;;;;17.42;3.38;;;;;;;8.94;100.00;100039.22;5016953;28;20479;-79
2022/11/16 10:32:11;;;;;;;17.75;3.72;;;;;;;8.98;100.00;100039.84;5016722;28;20041;-78
2022/11/16 10:35:00;;;;;;;9.07;3.28;;;;;;;8.94;100.00;100022.94;5016539;28;20048;-79
2022/11/16 10:37:36;;;;;;;11.60;3.20;;;;;;;8.81;100.00;99997.22;5016509;28;20477;-79
2022/11/16 10:40:22;;;;;;;13.00;2.97;;;;;;;8.91;100.00;100003.38;5016343;28;20030;-78
2022/11/16 10:43:11;;;;;;;14.20;3.80;;;;;;;8.95;100.00;99998.84;5016515;28;20065;-78
2022/11/16 10:45:57;;;;;;;12.27;2.97;;;;;;;8.87;100.00;99986.53;5016575;28;20462;-78
2022/11/16 10:48:36;;;;;;;11.82;2.88;;;;;;;9.19;100.00;100026.31;5016195;28;20022;-77
2022/11/16 10:51:03;;;;;;;7.93;3.20;;;;;;;9.08;100.00;100005.63;5016132;28;20046;-80
2022/11/16 10:53:34;;;;;;;12.52;3.25;;;;;;;9.24;100.00;100018.22;5031347;23;20053;-79
2022/11/16 10:56:18;;;;;;;11.10;2.83;;;;;;;9.29;100.00;100028.22;5036039;28;20083;-74
2022/11/16 10:58:53;;;;;;;13.23;3.05;;;;;;;9.34;100.00;100028.72;5035905;28;20440;-76
2022/11/16 11:01:31;;;;;;;15.90;3.28;;;;;;;9.27;100.00;100014.63;5036080;28;20025;-73
2022/11/16 11:03:57;;;;;;;11.40;2.83;;;;;;;9.39;100.00;100019.75;5035927;28;20488;-76
2022/11/16 11:06:25;;;;;;;13.52;3.33;;;;;;;9.53;100.00;100030.81;5035873;28;20021;-75
2022/11/16 11:08:50;;;;;;;12.38;2.90;;;;;;;9.35;100.00;99987.41;5042472;23;20058;-75
2022/11/16 11:14:14;;;;;;;9.23;2.33;;;;;;;9.89;100.00;100023.00;5036022;28;20041;-76
2022/11/16 11:16:40;;;;;;;11.43;2.60;;;;;;;9.90;100.00;100001.44;5035293;28;20111;-77
2022/11/16 11:19:24;;;;;;;8.05;2.22;;;;;;;9.92;100.00;99975.53;5035377;28;20057;-75
2022/11/16 11:21:55;;;;;;;9.07;1.95;;;;;;;10.11;100.00;99993.88;5035146;28;20052;-79
2022/11/16 11:24:20;;;;;;;12.98;2.10;;;;;;;10.23;99.92;100018.00;5035226;28;20120;-77
2022/11/16 11:26:52;;;;;;;11.57;3.00;;;;;;;10.33;100.00;100018.97;5035470;28;20116;-78
2022/11/16 11:29:18;;;;;;;11.52;1.98;;;;;;;10.43;99.95;100024.25;5035130;28;20029;-77
2022/11/16 11:31:48;;;;;;;10.13;2.47;;;;;;;10.18;96.42;99984.75;5035344;28;20059;-75
2022/11/16 11:34:19;;;;;;;5.93;1.67;;;;;;;10.28;97.67;99988.31;5034658;28;20033;-76
2022/11/16 11:36:52;;;;;;;7.63;1.85;;;;;;;10.54;97.38;100013.94;5017264;28;20099;-78
2022/11/16 11:39:17;;;;;;;10.88;2.45;;;;;;;10.56;96.56;100002.56;5035125;28;20037;-76
2022/11/16 11:41:44;;;;;;;10.18;2.10;;;;;;;10.34;96.06;99974.16;5034926;28;20385;-77
2022/11/16 11:44:12;;;;;;;11.23;2.50;;;;;;;10.38;94.41;99995.38;5034853;28;20029;-77
2022/11/16 11:46:43;;;;;;;10.48;2.50;;;;;;;10.07;94.75;99967.50;5035064;28;20029;-78
2022/11/16 11:49:48;;;;;;;7.90;2.03;;;;;;;10.41;96.42;100001.13;5034925;28;20029;-75
2022/11/16 11:52:20;;;;;;;10.25;1.80;;;;;;;10.39;94.90;99973.78;5017066;28;20029;-77
2022/11/16 11:54:49;;;;;;;8.32;1.80;;;;;;;10.40;94.71;99949.63;5034709;28;20029;-77
2022/11/16 11:57:20;;;;;;;11.00;2.00;;;;;;;10.69;93.12;99983.53;5034734;28;20588;-77
2022/11/16 11:59:47;;;;;;;9.23;2.00;;;;;;;10.80;92.77;99994.69;5033471;28;20043;-76
2022/11/16 12:02:27;;;;;;;14.15;2.17;;;;;;;10.84;92.49;99990.13;5034861;28;20108;-79
2022/11/16 12:05:08;;;;;;;10.43;2.63;;;;;;;10.81;91.77;99996.31;5035136;28;20393;-81
2022/11/16 12:07:45;;;;;;;9.13;1.70;;;;;;;10.84;92.62;99985.78;5034610;28;20025;-78
2022/11/16 12:10:32;;;;;;;8.55;2.53;;;;;;;10.66;92.85;99934.72;5034292;28;20033;-79
2022/11/16 12:13:26;;;;;;;11.77;2.00;;;;;;;10.93;91.29;99952.41;5034323;28;20025;-78